createdAt,value
2019-02-27T00:02:28.949Z,100.00
2019-02-27T00:04:58.003Z,100.00
2019-02-27T00:07:27.370Z,100.00
2019-02-27T00:09:56.436Z,100.00
2019-02-27T00:12:25.488Z,100.00
2019-02-27T00:14:54.552Z,100.00
2019-02-27T00:17:23.566Z,100.00
2019-02-27T00:19:52.618Z,100.00
2019-02-27T00:22:21.674Z,100.00
2019-02-27T00:24:51.022Z,100.00
2019-02-27T00:27:20.067Z,100.00
2019-02-27T00:29:49.118Z,100.00
2019-02-27T00:32:18.668Z,100.00
2019-02-27T00:34:48.206Z,100.00
2019-02-27T00:37:19.022Z,100.00
2019-02-27T00:39:47.958Z,100.00
2019-02-27T00:42:20.626Z,100.00
2019-02-27T00:44:48.254Z,100.00
2019-02-27T00:47:20.113Z,100.00
2019-02-27T00:49:48.369Z,100.00
2019-02-27T00:52:18.377Z,100.00
2019-02-27T00:54:47.827Z,100.00
2019-02-27T00:57:20.488Z,100.00
2019-02-27T00:59:47.566Z,100.00
2019-02-27T01:02:19.909Z,100.00
2019-02-27T01:04:47.363Z,100.00
2019-02-27T01:07:20.195Z,100.00
2019-02-27T01:09:48.233Z,100.00
2019-02-27T01:12:17.300Z,100.00
2019-02-27T01:14:46.315Z,100.00
2019-02-27T01:17:15.346Z,100.00
2019-02-27T01:19:44.449Z,100.00
2019-02-27T01:22:13.818Z,100.00
2019-02-27T01:24:43.151Z,100.00
2019-02-27T01:27:12.091Z,100.00
2019-02-27T01:29:41.145Z,100.00
2019-02-27T01:32:10.202Z,100.00
2019-02-27T01:34:39.265Z,100.00
2019-02-27T01:37:08.343Z,100.00
2019-02-27T01:39:37.627Z,100.00
2019-02-27T01:42:06.678Z,100.00
2019-02-27T01:44:35.736Z,100.00
2019-02-27T01:47:04.781Z,100.00
2019-02-27T01:49:33.771Z,100.00
2019-02-27T01:52:02.827Z,100.00
2019-02-27T01:54:31.846Z,100.00
2019-02-27T01:57:02.964Z,100.00
2019-02-27T01:59:31.643Z,100.00
2019-02-27T02:02:01.072Z,100.00
2019-02-27T02:04:31.433Z,100.00
2019-02-27T02:07:00.488Z,100.00
2019-02-27T02:09:32.772Z,100.00
2019-02-27T02:12:03.134Z,100.00
2019-02-27T02:14:54.911Z,100.00
2019-02-27T02:17:59.745Z,100.00
2019-02-27T02:21:05.953Z,100.00
2019-02-27T02:23:53.076Z,100.00
2019-02-27T02:27:08.137Z,100.00
2019-02-27T02:30:08.722Z,100.00
2019-02-27T02:33:06.562Z,100.00
2019-02-27T02:36:01.625Z,100.00
2019-02-27T02:39:20.520Z,100.00
2019-02-27T02:42:30.724Z,100.00
2019-02-27T02:45:13.715Z,100.00
2019-02-27T02:47:55.827Z,100.00
2019-02-27T02:51:28.986Z,100.00
2019-02-27T02:54:37.562Z,100.00
2019-02-27T02:57:36.265Z,100.00
2019-02-27T03:00:22.424Z,100.00
2019-02-27T03:03:04.138Z,100.00
2019-02-27T03:06:13.916Z,100.00
2019-02-27T03:09:15.416Z,100.00
2019-02-27T03:12:13.967Z,100.00
2019-02-27T03:15:08.013Z,100.00
2019-02-27T03:18:00.078Z,100.00
2019-02-27T03:20:44.465Z,100.00
2019-02-27T03:23:41.586Z,100.00
2019-02-27T03:26:53.920Z,100.00
2019-02-27T03:29:59.707Z,100.00
2019-02-27T03:32:40.909Z,100.00
2019-02-27T03:35:31.562Z,100.00
2019-02-27T03:38:29.283Z,100.00
2019-02-27T03:41:36.205Z,100.00
2019-02-27T03:44:23.952Z,100.00
2019-02-27T03:47:23.419Z,100.00
2019-02-27T03:50:32.258Z,100.00
2019-02-27T03:53:35.651Z,100.00
2019-02-27T03:56:35.191Z,100.00
2019-02-27T03:59:19.476Z,100.00
2019-02-27T04:02:33.089Z,100.00
2019-02-27T04:05:51.141Z,100.00
2019-02-27T04:08:53.325Z,100.00
2019-02-27T04:11:22.403Z,100.00
2019-02-27T04:13:52.047Z,100.00
2019-02-27T04:16:21.279Z,100.00
2019-02-27T04:18:50.649Z,100.00
2019-02-27T04:21:25.072Z,100.00
2019-02-27T04:23:51.966Z,100.00
2019-02-27T04:26:20.977Z,100.00
2019-02-27T04:28:50.042Z,100.00
2019-02-27T04:31:19.342Z,100.00
2019-02-27T04:33:48.405Z,100.00
2019-02-27T04:36:17.791Z,100.00
2019-02-27T04:38:46.729Z,100.00
2019-02-27T04:41:18.182Z,100.00
2019-02-27T04:43:46.482Z,100.00
2019-02-27T04:46:15.550Z,100.00
2019-02-27T04:48:44.582Z,100.00
2019-02-27T04:51:16.946Z,100.00
2019-02-27T04:53:44.750Z,100.00
2019-02-27T04:56:13.812Z,100.00
2019-02-27T04:58:43.752Z,100.00
2019-02-27T05:01:12.772Z,100.00
2019-02-27T05:03:41.793Z,100.00
2019-02-27T05:06:11.983Z,100.00
2019-02-27T05:08:41.865Z,100.00
2019-02-27T05:11:13.983Z,100.00
2019-02-27T05:13:41.683Z,100.00
2019-02-27T05:16:13.941Z,100.00
2019-02-27T05:18:41.783Z,100.00
2019-02-27T05:21:10.842Z,100.00
2019-02-27T05:23:40.199Z,100.00
2019-02-27T05:26:09.424Z,100.00
2019-02-27T05:28:38.441Z,100.00
2019-02-27T05:31:07.457Z,100.00
2019-02-27T05:33:38.864Z,100.00
2019-02-27T05:36:07.113Z,100.00
2019-02-27T05:38:36.196Z,100.00
2019-02-27T05:41:05.210Z,100.00
2019-02-27T05:43:34.234Z,100.00
2019-02-27T05:46:03.815Z,100.00
2019-02-27T05:48:32.980Z,100.00
2019-02-27T05:51:02.036Z,100.00
2019-02-27T05:53:31.146Z,100.00
2019-02-27T05:56:00.168Z,100.00
2019-02-27T05:58:29.210Z,100.00
2019-02-27T06:00:58.242Z,100.00
2019-02-27T06:03:27.274Z,100.00
2019-02-27T06:05:56.443Z,100.00
2019-02-27T06:08:25.379Z,100.00
2019-02-27T06:10:56.044Z,100.00
2019-02-27T06:13:25.251Z,100.00
2019-02-27T06:15:54.300Z,100.00
2019-02-27T06:18:23.835Z,100.00
2019-02-27T06:20:52.885Z,100.00
2019-02-27T06:23:21.840Z,100.00
2019-02-27T06:25:50.981Z,100.00
2019-02-27T06:28:20.005Z,100.00
2019-02-27T06:30:49.085Z,100.00
2019-02-27T06:33:18.100Z,100.00
2019-02-27T06:35:47.110Z,100.00
2019-02-27T06:38:16.112Z,100.00
2019-02-27T06:40:45.130Z,100.00
2019-02-27T06:43:14.105Z,100.00
2019-02-27T06:45:45.516Z,100.00
2019-02-27T06:48:13.922Z,100.00
2019-02-27T06:50:42.972Z,100.00
2019-02-27T06:53:15.536Z,100.00
2019-02-27T06:55:42.768Z,100.00
2019-02-27T06:58:14.833Z,100.00
2019-02-27T07:00:43.104Z,100.00
2019-02-27T07:03:12.071Z,100.00
2019-02-27T07:05:41.129Z,100.00
2019-02-27T07:08:10.184Z,100.00
2019-02-27T07:10:39.249Z,100.00
2019-02-27T07:13:08.225Z,100.00
2019-02-27T07:15:37.298Z,100.00
2019-02-27T07:18:06.749Z,100.00
2019-02-27T07:20:35.889Z,100.00
2019-02-27T07:23:04.879Z,100.00
2019-02-27T07:25:33.894Z,100.00
2019-02-27T07:28:03.564Z,100.00
2019-02-27T07:30:32.642Z,100.00
2019-02-27T07:33:03.776Z,100.00
2019-02-27T07:35:32.834Z,100.00
2019-02-27T07:38:01.882Z,100.00
2019-02-27T07:40:30.935Z,100.00
2019-02-27T07:42:59.995Z,100.00
2019-02-27T07:45:29.050Z,100.00
2019-02-27T07:47:58.097Z,100.00
2019-02-27T07:50:27.029Z,100.00
2019-02-27T07:52:56.082Z,100.00
2019-02-27T07:55:27.764Z,100.00
2019-02-27T07:57:58.778Z,100.00
2019-02-27T08:00:27.174Z,100.00
2019-02-27T08:02:56.197Z,100.00
2019-02-27T08:05:28.268Z,100.00
2019-02-27T08:07:56.003Z,100.00
2019-02-27T08:10:25.054Z,100.00
2019-02-27T08:12:56.543Z,100.00
2019-02-27T08:15:25.636Z,100.00
2019-02-27T08:17:57.627Z,100.00
2019-02-27T08:20:25.477Z,100.00
2019-02-27T08:22:54.543Z,100.00
2019-02-27T08:25:23.591Z,100.00
2019-02-27T08:27:54.277Z,100.00
2019-02-27T08:30:23.541Z,100.00
2019-02-27T08:32:52.546Z,100.00
2019-02-27T08:35:21.554Z,100.00
2019-02-27T08:37:50.610Z,100.00
2019-02-27T08:40:24.085Z,100.00
2019-02-27T08:42:50.429Z,100.00
2019-02-27T08:45:20.626Z,100.00
2019-02-27T08:47:49.999Z,100.00
2019-02-27T08:50:19.053Z,100.00
2019-02-27T08:52:51.444Z,100.00
2019-02-27T08:55:22.079Z,100.00
2019-02-27T08:57:50.100Z,100.00
2019-02-27T09:00:23.317Z,100.00
2019-02-27T09:02:52.521Z,100.00
2019-02-27T09:05:21.676Z,100.00
2019-02-27T09:07:50.727Z,100.00
2019-02-27T09:10:19.823Z,100.00
2019-02-27T09:12:51.574Z,100.00
2019-02-27T09:15:19.922Z,100.00
2019-02-27T09:17:49.069Z,100.00
2019-02-27T09:20:19.695Z,100.00
2019-02-27T09:22:49.097Z,100.00
2019-02-27T09:25:18.222Z,99.89
2019-02-27T09:27:47.501Z,98.42
2019-02-27T09:30:16.801Z,97.16
2019-02-27T09:32:46.118Z,93.65
2019-02-27T09:35:15.551Z,90.87
2019-02-27T09:37:44.613Z,89.34
2019-02-27T09:40:16.010Z,88.55
2019-02-27T09:42:45.088Z,85.41
2019-02-27T09:45:31.156Z,84.71
2019-02-27T09:48:00.780Z,83.06
2019-02-27T09:50:33.110Z,82.95
2019-02-27T09:53:03.609Z,81.41
2019-02-27T09:55:33.023Z,78.44
2019-02-27T09:58:02.059Z,81.18
2019-02-27T10:00:36.267Z,81.93
2019-02-27T10:03:05.434Z,79.95
2019-02-27T10:05:36.687Z,78.35
2019-02-27T10:08:07.505Z,75.14
2019-02-27T10:10:36.684Z,74.71
2019-02-27T10:13:05.763Z,75.79
2019-02-27T10:15:34.909Z,74.81
2019-02-27T10:18:04.066Z,72.27
2019-02-27T10:20:36.961Z,73.99
2019-02-27T10:23:03.870Z,72.29
2019-02-27T10:25:32.885Z,70.94
2019-02-27T10:28:04.325Z,70.41
2019-02-27T10:30:32.726Z,71.34
2019-02-27T10:33:03.310Z,72.61
2019-02-27T10:35:34.777Z,71.37
2019-02-27T10:38:03.786Z,70.00
2019-02-27T10:40:32.923Z,71.77
2019-02-27T10:43:02.196Z,71.16
2019-02-27T10:45:31.217Z,70.89
2019-02-27T10:48:00.127Z,71.22
2019-02-27T10:50:29.149Z,72.45
2019-02-27T10:52:58.210Z,70.29
2019-02-27T10:55:27.295Z,69.47
2019-02-27T10:57:56.297Z,66.99
2019-02-27T11:00:32.587Z,64.35
2019-02-27T11:03:01.666Z,67.06
2019-02-27T11:05:31.662Z,66.66
2019-02-27T11:07:59.967Z,67.61
2019-02-27T11:10:29.045Z,70.34
2019-02-27T11:12:58.363Z,68.01
2019-02-27T11:15:27.401Z,68.26
2019-02-27T11:17:56.454Z,69.35
2019-02-27T11:20:25.514Z,66.39
2019-02-27T11:22:54.582Z,66.40
2019-02-27T11:25:23.903Z,66.70
2019-02-27T11:27:52.930Z,68.26
2019-02-27T11:30:24.385Z,68.60
2019-02-27T11:32:56.885Z,66.05
2019-02-27T11:35:25.175Z,68.02
2019-02-27T11:37:55.058Z,65.53
2019-02-27T11:40:24.302Z,63.72
2019-02-27T11:42:53.565Z,62.34
2019-02-27T11:45:24.642Z,62.05
2019-02-27T11:47:53.665Z,60.44
2019-02-27T11:50:22.685Z,58.86
2019-02-27T11:52:51.985Z,59.91
2019-02-27T11:55:21.337Z,57.62
2019-02-27T11:57:50.490Z,57.30
2019-02-27T12:00:28.751Z,56.82
2019-02-27T12:02:58.324Z,55.21
2019-02-27T12:05:31.365Z,56.83
2019-02-27T12:07:58.324Z,56.15
2019-02-27T12:10:28.054Z,54.85
2019-02-27T12:13:00.886Z,54.76
2019-02-27T12:15:28.040Z,53.66
2019-02-27T12:17:59.839Z,54.59
2019-02-27T12:20:27.974Z,55.46
2019-02-27T12:22:57.034Z,54.63
2019-02-27T12:25:28.098Z,55.15
2019-02-27T12:27:57.152Z,52.85
2019-02-27T12:30:27.070Z,50.69
2019-02-27T12:32:57.080Z,51.21
2019-02-27T12:35:27.972Z,51.05
2019-02-27T12:37:57.036Z,49.68
2019-02-27T12:40:26.062Z,50.54
2019-02-27T12:42:55.140Z,50.22
2019-02-27T12:45:25.862Z,51.11
2019-02-27T12:47:55.706Z,51.44
2019-02-27T12:50:26.573Z,52.26
2019-02-27T12:52:56.120Z,52.28
2019-02-27T12:55:25.586Z,52.03
2019-02-27T12:57:54.662Z,49.62
2019-02-27T13:00:28.242Z,48.24
2019-02-27T13:02:58.966Z,46.66
2019-02-27T13:05:28.508Z,45.55
2019-02-27T13:07:57.960Z,45.25
2019-02-27T13:10:27.095Z,45.22
2019-02-27T13:12:56.161Z,46.54
2019-02-27T13:15:25.377Z,49.77
2019-02-27T13:17:57.439Z,50.35
2019-02-27T13:20:26.593Z,51.19
2019-02-27T13:22:55.612Z,52.09
2019-02-27T13:25:24.941Z,51.65
2019-02-27T13:27:54.099Z,52.43
2019-02-27T13:30:23.189Z,52.50
2019-02-27T13:32:52.239Z,52.46
2019-02-27T13:35:23.131Z,50.97
2019-02-27T13:37:52.462Z,51.83
2019-02-27T13:40:21.498Z,52.00
2019-02-27T13:42:53.439Z,50.66
2019-02-27T13:45:23.257Z,48.48
2019-02-27T13:47:52.372Z,48.80
2019-02-27T13:50:24.441Z,48.94
2019-02-27T13:52:52.490Z,50.15
2019-02-27T13:55:21.976Z,51.19
2019-02-27T13:57:51.337Z,51.56
2019-02-27T14:00:29.945Z,51.46
2019-02-27T14:02:58.960Z,52.37
2019-02-27T14:05:29.498Z,52.79
2019-02-27T14:07:59.103Z,53.36
2019-02-27T14:10:28.724Z,53.42
2019-02-27T14:12:57.804Z,53.21
2019-02-27T14:15:28.149Z,53.02
2019-02-27T14:17:57.409Z,52.43
2019-02-27T14:20:27.382Z,52.16
2019-02-27T14:22:57.553Z,51.67
2019-02-27T14:25:31.165Z,50.84
2019-02-27T14:27:57.907Z,50.71
2019-02-27T14:30:29.627Z,50.12
2019-02-27T14:32:58.646Z,50.58
2019-02-27T14:35:27.653Z,50.56
2019-02-27T14:37:56.670Z,50.93
2019-02-27T14:40:25.788Z,50.87
2019-02-27T14:42:55.228Z,51.71
2019-02-27T14:45:24.355Z,52.33
2019-02-27T14:47:53.470Z,52.64
2019-02-27T14:50:22.745Z,53.38
2019-02-27T14:52:51.828Z,53.59
2019-02-27T14:55:20.933Z,54.35
2019-02-27T14:57:51.056Z,54.79
2019-02-27T15:00:25.295Z,55.48
2019-02-27T15:02:55.545Z,55.58
2019-02-27T15:05:25.296Z,56.66
2019-02-27T15:07:54.866Z,57.23
2019-02-27T15:10:24.421Z,57.44
2019-02-27T15:12:55.050Z,57.67
2019-02-27T15:15:25.994Z,58.07
2019-02-27T15:17:55.130Z,57.77
2019-02-27T15:20:24.946Z,58.05
2019-02-27T15:22:54.005Z,58.25
2019-02-27T15:25:23.092Z,58.04
2019-02-27T15:27:52.132Z,58.27
2019-02-27T15:30:22.908Z,58.83
2019-02-27T15:32:51.930Z,59.34
2019-02-27T15:35:22.189Z,59.93
2019-02-27T15:37:51.783Z,60.15
2019-02-27T15:40:22.024Z,60.55
2019-02-27T15:42:51.041Z,60.54
2019-02-27T15:45:20.673Z,60.74
2019-02-27T15:47:49.845Z,61.26
2019-02-27T15:50:22.851Z,61.64
2019-02-27T15:52:50.896Z,62.20
2019-02-27T15:55:19.924Z,62.90
2019-02-27T15:57:53.687Z,62.42
2019-02-27T16:00:21.538Z,63.01
2019-02-27T16:02:50.664Z,63.36
2019-02-27T16:05:20.018Z,63.88
2019-02-27T16:07:49.795Z,64.33
2019-02-27T16:10:20.468Z,64.94
2019-02-27T16:12:49.610Z,65.27
2019-02-27T16:15:18.737Z,65.71
2019-02-27T16:17:47.831Z,66.55
2019-02-27T16:20:17.765Z,66.95
2019-02-27T16:22:46.814Z,68.20
2019-02-27T16:25:19.880Z,68.88
2019-02-27T16:27:48.375Z,70.20
2019-02-27T16:30:22.886Z,70.92
2019-02-27T16:32:52.228Z,71.81
2019-02-27T16:35:21.230Z,73.43
2019-02-27T16:37:56.273Z,74.35
2019-02-27T16:40:22.034Z,74.90
2019-02-27T16:42:51.405Z,76.15
2019-02-27T16:45:22.999Z,76.25
2019-02-27T16:47:54.080Z,77.21
2019-02-27T16:50:24.758Z,79.28
2019-02-27T16:52:54.586Z,79.21
2019-02-27T16:55:24.168Z,80.13
2019-02-27T16:57:56.477Z,81.30
2019-02-27T17:00:25.950Z,82.59
2019-02-27T17:02:56.959Z,83.67
2019-02-27T17:05:25.777Z,84.03
2019-02-27T17:08:00.271Z,85.50
2019-02-27T17:10:29.292Z,86.25
2019-02-27T17:12:58.384Z,87.30
2019-02-27T17:15:27.402Z,88.58
2019-02-27T17:17:56.466Z,90.22
2019-02-27T17:20:25.486Z,91.58
2019-02-27T17:22:54.517Z,92.75
2019-02-27T17:25:28.669Z,93.42
2019-02-27T17:27:54.323Z,94.35
2019-02-27T17:30:28.197Z,94.94
2019-02-27T17:32:57.200Z,95.66
2019-02-27T17:35:26.538Z,97.25
2019-02-27T17:37:55.548Z,98.19
2019-02-27T17:40:24.613Z,99.39
2019-02-27T17:42:54.467Z,100.00
2019-02-27T17:45:23.594Z,100.00
2019-02-27T17:47:52.617Z,100.00
2019-02-27T17:50:21.633Z,100.00
2019-02-27T17:52:50.782Z,100.00
2019-02-27T17:55:19.824Z,100.00
2019-02-27T17:57:48.878Z,100.00
2019-02-27T18:00:23.533Z,100.00
2019-02-27T18:02:52.589Z,100.00
2019-02-27T18:05:22.286Z,100.00
2019-02-27T18:07:52.388Z,100.00
2019-02-27T18:10:21.957Z,100.00
2019-02-27T18:12:51.726Z,100.00
2019-02-27T18:15:21.303Z,100.00
2019-02-27T18:17:50.640Z,100.00
2019-02-27T18:20:24.375Z,100.00
2019-02-27T18:22:51.004Z,100.00
2019-02-27T18:25:20.127Z,100.00
2019-02-27T18:27:49.200Z,100.00
2019-02-27T18:30:18.832Z,100.00
2019-02-27T18:32:48.754Z,100.00
2019-02-27T18:35:17.904Z,100.00
2019-02-27T18:37:47.068Z,100.00
2019-02-27T18:40:16.290Z,100.00
2019-02-27T18:42:45.561Z,100.00
2019-02-27T18:45:16.205Z,100.00
2019-02-27T18:47:45.378Z,100.00
2019-02-27T18:50:14.828Z,100.00
2019-02-27T18:52:44.152Z,100.00
2019-02-27T18:55:13.425Z,100.00
2019-02-27T18:57:45.952Z,100.00
2019-02-27T19:00:19.318Z,100.00
2019-02-27T19:02:52.008Z,100.00
2019-02-27T19:05:19.466Z,100.00
2019-02-27T19:07:53.624Z,100.00
2019-02-27T19:10:19.256Z,100.00
2019-02-27T19:12:48.304Z,100.00
2019-02-27T19:15:18.620Z,100.00
2019-02-27T19:17:47.634Z,100.00
2019-02-27T19:20:23.961Z,100.00
2019-02-27T19:22:50.114Z,100.00
2019-02-27T19:25:19.236Z,100.00
2019-02-27T19:27:49.845Z,100.00
2019-02-27T19:30:19.914Z,100.00
2019-02-27T19:32:49.421Z,100.00
2019-02-27T19:35:21.561Z,100.00
2019-02-27T19:37:49.489Z,100.00
2019-02-27T19:40:19.434Z,100.00
2019-02-27T19:42:56.351Z,100.00
2019-02-27T19:45:25.488Z,100.00
2019-02-27T19:47:55.782Z,100.00
2019-02-27T19:50:25.133Z,100.00
2019-02-27T19:52:54.339Z,100.00
2019-02-27T19:55:26.263Z,100.00
2019-02-27T19:57:54.489Z,100.00
2019-02-27T20:00:25.017Z,100.00
2019-02-27T20:02:57.466Z,100.00
2019-02-27T20:05:24.998Z,100.00
2019-02-27T20:07:54.379Z,100.00
2019-02-27T20:10:23.381Z,100.00
2019-02-27T20:12:53.830Z,100.00
2019-02-27T20:15:23.491Z,100.00
2019-02-27T20:17:53.153Z,100.00
2019-02-27T20:20:23.053Z,100.00
2019-02-27T20:22:53.539Z,100.00
2019-02-27T20:25:23.621Z,100.00
2019-02-27T20:27:52.893Z,100.00
2019-02-27T20:30:21.966Z,100.00
2019-02-27T20:32:50.989Z,100.00
2019-02-27T20:35:20.764Z,100.00
2019-02-27T20:37:50.450Z,100.00
2019-02-27T20:40:19.525Z,100.00
2019-02-27T20:42:50.447Z,100.00
2019-02-27T20:45:20.002Z,100.00
2019-02-27T20:47:49.061Z,100.00
2019-02-27T20:50:34.451Z,100.00
2019-02-27T20:52:54.703Z,100.00
2019-02-27T20:55:23.726Z,100.00
2019-02-27T20:57:52.776Z,100.00
2019-02-27T21:00:22.408Z,100.00
2019-02-27T21:02:53.525Z,100.00
2019-02-27T21:05:22.890Z,100.00
2019-02-27T21:07:52.309Z,100.00
2019-02-27T21:10:22.552Z,100.00
2019-02-27T21:12:54.309Z,100.00
2019-02-27T21:15:24.850Z,100.00
2019-02-27T21:17:57.749Z,100.00
2019-02-27T21:20:24.468Z,100.00
2019-02-27T21:22:53.478Z,100.00
2019-02-27T21:25:22.794Z,100.00
2019-02-27T21:27:51.772Z,100.00
2019-02-27T21:30:20.851Z,100.00
2019-02-27T21:32:49.904Z,100.00
2019-02-27T21:35:18.920Z,100.00
2019-02-27T21:37:47.938Z,100.00
2019-02-27T21:40:17.046Z,100.00
2019-02-27T21:42:46.049Z,100.00
2019-02-27T21:45:16.096Z,100.00
2019-02-27T21:47:45.382Z,100.00
2019-02-27T21:50:16.222Z,100.00
2019-02-27T21:52:45.377Z,100.00
2019-02-27T21:55:14.397Z,100.00
2019-02-27T21:57:43.447Z,100.00
2019-02-27T22:00:17.097Z,100.00
2019-02-27T22:02:46.202Z,100.00
2019-02-27T22:05:18.880Z,100.00
2019-02-27T22:07:49.369Z,100.00
2019-02-27T22:10:19.536Z,100.00
2019-02-27T22:12:49.556Z,100.00
2019-02-27T22:15:22.989Z,100.00
2019-02-27T22:17:51.694Z,100.00
2019-02-27T22:20:21.103Z,100.00
2019-02-27T22:22:50.518Z,100.00
2019-02-27T22:25:19.577Z,100.00
2019-02-27T22:27:48.658Z,100.00
2019-02-27T22:30:18.069Z,100.00
2019-02-27T22:32:48.083Z,100.00
2019-02-27T22:35:17.797Z,100.00
2019-02-27T22:37:51.268Z,100.00
2019-02-27T22:40:18.145Z,100.00
2019-02-27T22:42:48.572Z,100.00
2019-02-27T22:45:18.975Z,100.00
2019-02-27T22:47:48.155Z,100.00
2019-02-27T22:50:17.404Z,100.00
2019-02-27T22:52:46.421Z,100.00
2019-02-27T22:55:15.529Z,100.00
2019-02-27T22:57:47.733Z,100.00
2019-02-27T23:01:08.456Z,100.00
2019-02-27T23:03:54.921Z,100.00
2019-02-27T23:06:23.387Z,100.00
2019-02-27T23:08:54.427Z,100.00
2019-02-27T23:11:23.596Z,100.00
2019-02-27T23:13:52.609Z,100.00
2019-02-27T23:16:21.630Z,100.00
2019-02-27T23:18:50.727Z,100.00
2019-02-27T23:21:19.744Z,100.00
2019-02-27T23:23:48.826Z,100.00
2019-02-27T23:26:20.139Z,100.00
2019-02-27T23:28:48.663Z,100.00
2019-02-27T23:31:22.175Z,100.00
2019-02-27T23:33:48.446Z,100.00
2019-02-27T23:36:17.465Z,100.00
2019-02-27T23:38:46.513Z,100.00
2019-02-27T23:41:15.785Z,100.00
2019-02-27T23:43:44.879Z,100.00
2019-02-27T23:46:15.624Z,100.00
2019-02-27T23:48:45.062Z,100.00
2019-02-27T23:51:16.733Z,100.00
2019-02-27T23:53:44.874Z,100.00
2019-02-27T23:56:19.278Z,100.00
2019-02-27T23:58:45.107Z,100.00
